Time;durP1;ratioP1;P1;durP2;ratioP2;P2;SDS_P1;SDS_P2;PMS_P1;PMS_P2;Temp;Humidity;BMP_temperature;BMP_pressure;BME280_temperature;BME280_humidity;BME280_pressure;Samples;Min_cycle;Max_cycle;Signal;HPM_P1;HPM_P2
2021/05/27 00:01:53;;;;;;;6.40;3.95;;;;;;;7.15;75.54;99002.73;1775219;79;20981;-67
2021/05/27 00:04:20;;;;;;;5.62;3.90;;;;;;;7.15;75.67;99000.14;1769089;80;21017;-67
2021/05/27 00:06:46;;;;;;;4.92;3.80;;;;;;;7.14;75.65;99003.20;1769909;80;20964;-67
2021/05/27 00:09:13;;;;;;;4.87;4.37;;;;;;;7.11;75.67;99000.75;1769716;79;21641;-67
2021/05/27 00:11:39;;;;;;;7.20;4.78;;;;;;;7.11;75.81;98994.69;1773908;80;21620;-67
2021/05/27 00:14:06;;;;;;;6.00;4.03;;;;;;;7.12;75.90;98996.39;1773765;79;21372;-67
2021/05/27 00:16:33;;;;;;;5.60;4.40;;;;;;;7.12;75.92;98993.80;1773081;80;21739;-67
2021/05/27 00:19:00;;;;;;;5.62;4.35;;;;;;;7.11;75.91;98997.28;1775029;80;21082;-67
2021/05/27 00:21:26;;;;;;;6.00;4.60;;;;;;;7.10;76.05;98986.52;1773156;80;21597;-67
2021/05/27 00:23:53;;;;;;;4.50;4.03;;;;;;;7.09;76.07;98997.83;1769875;80;21001;-67
2021/05/27 00:26:20;;;;;;;4.70;4.28;;;;;;;7.07;76.15;98989.26;1773626;80;21080;-67
2021/05/27 00:28:46;;;;;;;5.13;4.63;;;;;;;7.07;76.18;98989.26;1774921;79;21083;-67
2021/05/27 00:31:13;;;;;;;4.97;4.10;;;;;;;7.06;76.22;98995.37;1769104;80;21108;-67
2021/05/27 00:33:40;;;;;;;8.73;4.97;;;;;;;7.03;76.21;98995.48;1766624;80;21079;-67
2021/05/27 00:36:07;;;;;;;4.92;4.22;;;;;;;7.02;76.26;98994.64;1762941;80;21067;-67
2021/05/27 00:38:34;;;;;;;5.50;4.12;;;;;;;7.02;76.40;98993.80;1767198;80;21135;-67
2021/05/27 00:41:00;;;;;;;5.10;3.98;;;;;;;7.02;76.43;99000.30;1764435;80;21148;-67
2021/05/27 00:43:27;;;;;;;10.08;3.65;;;;;;;7.02;76.55;98999.00;1767002;80;20969;-67
2021/05/27 00:45:53;;;;;;;4.40;4.00;;;;;;;7.03;76.59;98992.88;1763368;80;21370;-67
2021/05/27 00:51:06;;;;;;;4.50;3.77;;;;;;;7.00;76.58;98994.32;1763009;80;21611;-67
2021/05/27 00:53:33;;;;;;;5.03;4.40;;;;;;;6.98;76.56;98997.46;1770057;80;21143;-67
2021/05/27 00:56:00;;;;;;;7.33;4.25;;;;;;;6.93;76.61;98998.48;1770643;79;20949;-67
2021/05/27 00:58:27;;;;;;;5.30;4.20;;;;;;;6.90;76.60;98996.49;1761201;80;20952;-67
2021/05/27 01:00:54;;;;;;;5.58;4.03;;;;;;;6.86;76.72;99000.98;1766666;80;21231;-67
2021/05/27 01:03:20;;;;;;;8.27;4.20;;;;;;;6.83;76.81;98997.20;1765233;80;20981;-67
2021/05/27 01:05:47;;;;;;;4.30;3.90;;;;;;;6.81;76.80;98999.03;1771164;79;21233;-68
2021/05/27 01:08:14;;;;;;;6.05;4.08;;;;;;;6.79;76.86;98996.95;1769222;80;21013;-67
2021/05/27 01:10:41;;;;;;;;;;;;;;;6.77;76.92;99005.25;1769172;80;21035;-68
2021/05/27 01:13:08;;;;;;;5.80;4.28;;;;;;;6.76;77.09;98998.39;1765724;80;20254;-67
2021/05/27 01:15:35;;;;;;;5.75;4.47;;;;;;;6.73;76.94;98999.82;1764324;80;21581;-67
2021/05/27 01:18:12;;;;;;;5.72;4.55;;;;;;;6.71;77.12;98995.98;1767709;80;21033;-67
2021/05/27 01:20:45;;;;;;;7.42;4.45;;;;;;;6.70;77.07;98998.66;1766737;80;21609;-66
2021/05/27 01:23:13;;;;;;;4.92;3.80;;;;;;;6.68;77.13;99005.66;1767484;80;22275;-67
2021/05/27 01:25:42;;;;;;;6.85;4.22;;;;;;;6.64;77.16;99003.66;1764777;79;21073;-67
2021/05/27 01:28:09;;;;;;;9.05;3.87;;;;;;;6.61;77.11;99010.27;1765636;80;20984;-67
2021/05/27 01:30:35;;;;;;;7.00;4.25;;;;;;;6.58;77.16;99004.34;1765073;80;22178;-67
2021/05/27 01:33:02;;;;;;;4.80;4.30;;;;;;;6.55;77.22;99001.89;1769567;80;21629;-67
2021/05/27 01:35:29;;;;;;;4.53;3.30;;;;;;;6.52;77.27;99002.02;1774063;80;21037;-67
2021/05/27 01:37:56;;;;;;;7.50;4.00;;;;;;;6.48;77.25;99006.50;1765259;80;22149;-66
2021/05/27 01:40:25;;;;;;;5.55;3.98;;;;;;;6.43;77.30;98996.31;1768293;80;21110;-67
2021/05/27 01:42:57;;;;;;;6.70;4.40;;;;;;;6.41;77.36;98991.66;1772891;80;21095;-67
2021/05/27 01:45:23;;;;;;;6.10;3.72;;;;;;;6.38;77.47;98995.66;1775618;79;21051;-67
2021/05/27 01:47:55;;;;;;;6.72;4.15;;;;;;;6.37;77.56;98991.39;1767093;80;20980;-67
2021/05/27 01:50:22;;;;;;;5.08;4.58;;;;;;;6.36;77.56;98996.20;1770697;80;20965;-67
2021/05/27 01:52:50;;;;;;;5.95;4.40;;;;;;;6.35;77.62;98993.19;1772534;80;21021;-67
2021/05/27 01:55:17;;;;;;;6.40;4.70;;;;;;;6.34;77.64;98995.86;1771687;80;21096;-67
2021/05/27 01:57:44;;;;;;;6.03;4.90;;;;;;;6.32;77.67;98995.91;1769462;80;21293;-67
2021/05/27 02:00:12;;;;;;;6.55;5.00;;;;;;;6.34;77.77;98994.11;1769382;79;20926;-67
2021/05/27 02:02:39;;;;;;;6.25;4.75;;;;;;;6.38;77.88;98994.36;1769121;80;21015;-67
2021/05/27 02:05:07;;;;;;;7.00;4.75;;;;;;;6.40;77.91;98996.44;1769733;79;20995;-67
2021/05/27 02:07:33;;;;;;;5.92;4.75;;;;;;;6.44;77.93;99004.50;1765343;80;21759;-67
2021/05/27 02:10:00;;;;;;;7.78;5.17;;;;;;;6.50;78.10;99010.72;1764140;80;20992;-67
2021/05/27 02:12:28;;;;;;;5.08;4.58;;;;;;;6.54;78.11;99008.83;1772320;80;20976;-67
2021/05/27 02:14:55;;;;;;;6.47;4.70;;;;;;;6.62;78.06;99005.92;1772402;79;21020;-67
2021/05/27 02:17:21;;;;;;;5.97;4.30;;;;;;;6.65;78.05;99004.49;1771785;80;20996;-67
2021/05/27 02:19:48;;;;;;;5.90;4.05;;;;;;;6.67;78.03;99003.98;1775077;80;21726;-66
2021/05/27 02:22:14;;;;;;;6.62;4.50;;;;;;;6.72;78.04;99008.49;1768740;80;21530;-67
2021/05/27 02:24:41;;;;;;;5.15;4.65;;;;;;;6.74;78.02;99007.98;1767586;80;20941;-67
2021/05/27 02:27:09;;;;;;;13.68;5.12;;;;;;;6.80;78.14;99001.22;1776198;79;21072;-66
2021/05/27 02:29:35;;;;;;;6.60;4.60;;;;;;;6.83;78.06;99002.38;1769586;80;21032;-67
2021/05/27 02:32:02;;;;;;;8.90;5.00;;;;;;;6.83;78.00;98993.77;1765731;79;22301;-67
2021/05/27 02:34:29;;;;;;;6.25;4.75;;;;;;;6.84;78.04;99000.20;1764689;80;21032;-67
2021/05/27 02:36:55;;;;;;;6.25;4.92;;;;;;;6.83;78.03;98998.49;1767435;80;20981;-67
2021/05/27 02:39:22;;;;;;;5.85;4.67;;;;;;;6.86;78.03;98999.69;1767839;80;20988;-67
2021/05/27 02:41:48;;;;;;;6.80;4.78;;;;;;;6.86;78.06;98997.09;1768981;80;20973;-68
2021/05/27 02:44:15;;;;;;;7.17;5.80;;;;;;;6.86;78.07;98997.09;1767121;80;21599;-67
2021/05/27 02:46:42;;;;;;;6.80;4.77;;;;;;;6.89;78.12;98996.95;1771311;80;21052;-67
2021/05/27 02:49:08;;;;;;;6.37;5.13;;;;;;;6.87;78.06;98997.47;1765081;80;21009;-67
2021/05/27 02:51:35;;;;;;;6.83;5.20;;;;;;;6.90;78.23;98996.03;1766884;80;21575;-67
2021/05/27 02:54:02;;;;;;;6.40;5.08;;;;;;;7.01;78.33;99003.81;1765298;80;21128;-67
2021/05/27 02:56:29;;;;;;;;;;;;;;;7.07;78.27;99007.42;1767140;79;21098;-67
2021/05/27 02:58:56;;;;;;;8.30;5.35;;;;;;;7.11;78.45;99002.05;1762239;80;20325;-67
2021/05/27 03:01:23;;;;;;;9.68;5.67;;;;;;;7.15;78.39;99013.13;1765933;80;21657;-67
2021/05/27 03:03:49;;;;;;;8.78;5.55;;;;;;;7.19;78.43;99006.88;1766616;80;21803;-67
2021/05/27 03:06:16;;;;;;;7.85;6.20;;;;;;;7.23;78.42;99008.44;1762906;80;21621;-67
2021/05/27 03:08:43;;;;;;;7.20;6.45;;;;;;;7.26;78.51;99010.89;1765809;80;21795;-67
2021/05/27 03:11:10;;;;;;;8.47;7.07;;;;;;;7.33;78.64;98999.30;1765426;80;21720;-66
2021/05/27 03:13:37;;;;;;;7.70;6.83;;;;;;;7.37;78.67;99006.05;1764367;80;22304;-67
2021/05/27 03:16:04;;;;;;;6.47;5.87;;;;;;;7.43;78.71;99010.13;1765556;80;20962;-67
2021/05/27 03:18:31;;;;;;;7.05;5.95;;;;;;;7.50;78.78;99002.87;1763423;80;21656;-67
2021/05/27 03:20:59;;;;;;;8.70;7.40;;;;;;;7.56;78.79;99008.66;1762825;80;21035;-67
2021/05/27 03:23:26;;;;;;;8.13;6.65;;;;;;;7.63;78.83;99014.40;1763175;80;21008;-67
2021/05/27 03:25:53;;;;;;;7.63;6.83;;;;;;;7.67;78.83;99010.73;1766512;79;21055;-67
2021/05/27 03:28:20;;;;;;;9.53;7.40;;;;;;;7.74;78.83;99009.54;1766151;80;21023;-67
2021/05/27 03:30:47;;;;;;;8.18;6.80;;;;;;;7.79;78.82;98999.77;1773904;80;21041;-67
2021/05/27 03:33:14;;;;;;;8.48;7.08;;;;;;;7.85;78.83;99009.87;1766545;80;21178;-67
2021/05/27 03:35:41;;;;;;;8.60;7.22;;;;;;;7.94;78.85;99011.19;1758076;79;20963;-67
2021/05/27 03:38:07;;;;;;;9.73;6.65;;;;;;;8.03;78.84;99009.91;1762478;80;20956;-66
2021/05/27 03:40:34;;;;;;;7.10;5.70;;;;;;;8.11;78.87;99010.37;1767815;78;21045;-67
2021/05/27 03:43:01;;;;;;;8.70;6.22;;;;;;;8.25;78.89;99012.31;1766063;80;21078;-67
2021/05/27 03:45:31;;;;;;;9.67;7.63;;;;;;;8.46;78.93;99016.95;1769240;80;21066;-67
2021/05/27 03:47:59;;;;;;;8.78;6.35;;;;;;;8.70;78.93;99024.81;1769973;80;21043;-67
2021/05/27 03:50:27;;;;;;;;;;;;;;;9.14;78.94;99016.48;1768420;80;20995;-67
2021/05/27 03:52:55;;;;;;;9.30;5.80;;;;;;;9.56;78.77;99015.58;1769197;80;20257;-68
2021/05/27 03:55:23;;;;;;;6.80;6.00;;;;;;;9.83;78.69;99014.50;1737180;80;21000;-69
2021/05/27 03:57:54;;;;;;;5.28;4.60;;;;;;;10.26;78.69;99014.25;1770334;80;21004;-68
2021/05/27 04:03:09;;;;;;;5.97;4.78;;;;;;;13.59;79.31;99002.16;1765543;80;24280;-67
2021/05/27 04:08:23;;;;;;;6.53;4.72;;;;;;;14.72;75.19;99002.69;1761825;80;21081;-65
2021/05/27 04:10:49;;;;;;;;;;;;;;;14.13;74.49;99005.33;1764916;80;22195;-66
2021/05/27 04:13:17;;;;;;;6.08;4.70;;;;;;;13.66;74.69;98999.93;1767220;79;28635;-66
2021/05/27 04:15:44;;;;;;;5.33;4.83;;;;;;;13.26;75.18;98999.30;1765033;80;21578;-66
2021/05/27 04:18:19;;;;;;;6.03;5.05;;;;;;;12.95;75.33;98985.66;1765136;80;27026;-65
2021/05/27 04:20:58;;;;;;;4.95;4.33;;;;;;;12.79;75.53;98983.23;1767414;78;21041;-66
2021/05/27 04:23:35;;;;;;;5.40;4.90;;;;;;;12.72;75.67;98988.06;1760663;80;21686;-65
2021/05/27 04:26:07;;;;;;;5.95;5.08;;;;;;;12.82;75.82;98986.13;1765815;80;20996;-66
2021/05/27 04:28:34;;;;;;;5.37;4.50;;;;;;;13.00;75.78;98983.56;1768631;79;22340;-66
2021/05/27 04:31:09;;;;;;;;;;;;;;;13.23;75.79;98987.69;1765739;80;21063;-67
2021/05/27 04:33:39;;;;;;;7.17;6.47;;;;;;;14.19;76.66;98986.49;1768698;80;20628;-67
2021/05/27 04:36:07;;;;;;;7.75;5.62;;;;;;;15.53;76.08;98986.34;1773782;80;21822;-67
2021/05/27 04:38:33;;;;;;;8.45;5.85;;;;;;;16.50;74.37;98987.27;1768066;80;21597;-67
2021/05/27 04:41:00;;;;;;;6.08;5.47;;;;;;;16.47;72.58;98983.56;1767665;80;20950;-67
2021/05/27 04:43:27;;;;;;;7.62;5.65;;;;;;;15.98;72.48;98986.27;1766730;80;21000;-67
2021/05/27 04:45:53;;;;;;;6.33;5.72;;;;;;;15.34;72.71;98983.01;1764805;80;21611;-67
2021/05/27 04:48:20;;;;;;;7.92;5.37;;;;;;;14.84;72.83;98992.54;1767110;80;21056;-67
2021/05/27 04:50:50;;;;;;;7.85;7.15;;;;;;;14.35;73.05;98998.85;1774258;79;20949;-67
2021/05/27 04:53:18;;;;;;;8.00;6.42;;;;;;;13.98;73.61;98988.92;1767789;80;20972;-67
2021/05/27 04:55:44;;;;;;;9.18;6.28;;;;;;;13.80;74.02;98986.66;1766294;79;21507;-67
2021/05/27 04:58:11;;;;;;;7.62;5.65;;;;;;;13.57;73.61;98990.94;1766041;80;21480;-67
2021/05/27 05:00:39;;;;;;;6.22;5.37;;;;;;;13.29;73.83;98992.52;1770059;80;21184;-66
2021/05/27 05:03:06;;;;;;;8.30;5.95;;;;;;;13.03;73.87;98996.45;1766741;80;21388;-66
2021/05/27 05:05:35;;;;;;;7.25;6.50;;;;;;;12.74;73.71;98993.19;1771591;80;21052;-66
2021/05/27 05:08:03;;;;;;;9.33;5.92;;;;;;;12.53;74.00;98999.41;1765755;80;21616;-66
2021/05/27 05:10:31;;;;;;;6.80;5.83;;;;;;;12.39;74.18;98996.40;1767710;80;21033;-66
2021/05/27 05:12:59;;;;;;;7.85;6.08;;;;;;;12.27;74.04;99003.28;1765748;80;21250;-66
2021/05/27 05:15:31;;;;;;;9.63;6.00;;;;;;;12.12;74.00;99005.58;1767805;80;20957;-67
2021/05/27 05:18:02;;;;;;;7.40;6.55;;;;;;;12.00;74.09;99010.31;1768004;80;21035;-66
2021/05/27 05:20:33;;;;;;;7.45;6.70;;;;;;;11.95;74.16;99008.45;1766763;80;21048;-66
2021/05/27 05:23:00;;;;;;;6.92;6.22;;;;;;;11.93;74.29;99014.25;1767653;79;21031;-67
2021/05/27 05:25:29;;;;;;;8.43;6.08;;;;;;;12.03;74.47;99019.27;1762925;80;21105;-66
2021/05/27 05:27:57;;;;;;;7.97;6.35;;;;;;;12.21;74.41;99020.70;1770543;79;20957;-66
2021/05/27 05:30:26;;;;;;;7.60;6.85;;;;;;;12.28;74.08;99020.66;1766319;80;21497;-67
2021/05/27 05:32:54;;;;;;;6.78;6.05;;;;;;;12.36;74.09;99027.19;1764048;80;21021;-66
2021/05/27 05:35:21;;;;;;;7.47;6.65;;;;;;;12.48;74.10;99019.34;1765000;79;21075;-66
2021/05/27 05:37:49;;;;;;;12.10;7.75;;;;;;;12.56;74.13;99026.70;1765384;80;21845;-66
2021/05/27 05:40:21;;;;;;;8.58;7.78;;;;;;;12.52;73.79;99033.09;1763002;80;20968;-67
2021/05/27 05:42:48;;;;;;;9.68;7.17;;;;;;;12.50;73.78;99031.04;1760049;80;21029;-67
2021/05/27 05:45:17;;;;;;;7.05;6.35;;;;;;;12.51;73.90;99034.84;1767770;80;21095;-67
2021/05/27 05:47:48;;;;;;;8.05;6.70;;;;;;;12.51;73.86;99031.39;1765205;80;20952;-66
2021/05/27 05:53:05;;;;;;;10.10;7.12;;;;;;;12.48;73.89;99036.84;1765128;79;21624;-66
2021/05/27 05:55:32;;;;;;;10.00;7.37;;;;;;;12.53;73.92;99042.62;1768192;80;21012;-66
2021/05/27 05:57:59;;;;;;;7.65;6.62;;;;;;;12.52;73.77;99047.50;1762887;80;21607;-67
2021/05/27 06:00:26;;;;;;;9.58;8.40;;;;;;;12.49;73.76;99046.36;1765214;80;21047;-67
2021/05/27 06:02:52;;;;;;;8.18;7.35;;;;;;;12.51;73.62;99043.18;1765257;80;21593;-67
2021/05/27 06:05:21;;;;;;;11.00;7.87;;;;;;;12.46;73.61;99047.43;1761549;80;21019;-66
2021/05/27 06:07:48;;;;;;;10.68;8.95;;;;;;;12.54;73.89;99044.28;1762270;80;21327;-65
2021/05/27 06:10:15;;;;;;;10.80;8.90;;;;;;;12.64;73.71;99045.36;1764447;80;21071;-66
2021/05/27 06:12:41;;;;;;;9.07;8.17;;;;;;;12.71;73.74;99042.69;1763288;80;21062;-66
2021/05/27 06:15:10;;;;;;;10.50;8.75;;;;;;;12.81;73.53;99042.09;1762000;80;21075;-67
2021/05/27 06:17:37;;;;;;;15.40;8.48;;;;;;;12.85;73.28;99047.48;1762964;80;21019;-66
2021/05/27 06:20:05;;;;;;;8.55;7.65;;;;;;;12.98;73.61;99047.02;1764300;80;21175;-66
2021/05/27 06:22:31;;;;;;;10.53;7.08;;;;;;;13.19;73.67;99050.81;1762659;80;20992;-67
2021/05/27 06:24:58;;;;;;;6.72;6.08;;;;;;;13.33;73.31;99051.66;1768545;80;20957;-67
2021/05/27 06:27:24;;;;;;;7.75;7.00;;;;;;;13.45;73.05;99052.12;1769255;80;21127;-66
2021/05/27 06:29:51;;;;;;;7.83;7.03;;;;;;;13.55;73.09;99053.14;1769000;80;21073;-67
2021/05/27 06:32:21;;;;;;;8.15;6.87;;;;;;;13.68;72.97;99060.17;1770688;80;21125;-66
2021/05/27 06:34:48;;;;;;;7.87;7.05;;;;;;;13.71;72.46;99058.64;1762544;80;21085;-67
2021/05/27 06:37:15;;;;;;;9.75;7.28;;;;;;;13.83;73.08;99056.44;1769146;80;21031;-67
2021/05/27 06:39:41;;;;;;;8.30;7.37;;;;;;;13.90;72.91;99064.26;1764096;80;21548;-66
2021/05/27 06:42:07;;;;;;;8.40;7.60;;;;;;;13.95;72.36;99056.90;1765734;80;20998;-66
2021/05/27 06:44:34;;;;;;;8.43;7.62;;;;;;;13.98;72.48;99059.78;1767377;80;20986;-66
2021/05/27 06:47:00;;;;;;;8.88;7.40;;;;;;;14.10;72.71;99051.84;1768447;80;21011;-67
2021/05/27 06:49:27;;;;;;;10.88;7.78;;;;;;;14.27;72.73;99056.34;1770941;80;20985;-67
2021/05/27 06:51:56;;;;;;;8.35;6.92;;;;;;;14.39;72.41;99056.75;1766260;80;20948;-67
2021/05/27 06:54:22;;;;;;;8.35;7.53;;;;;;;14.38;72.22;99060.34;1765637;80;20996;-66
2021/05/27 06:56:48;;;;;;;8.38;7.53;;;;;;;14.36;72.34;99070.11;1770327;80;21635;-66
2021/05/27 06:59:15;;;;;;;10.60;7.55;;;;;;;14.41;72.34;99068.47;1761653;80;20997;-66
2021/05/27 07:01:41;;;;;;;7.72;6.85;;;;;;;14.41;72.09;99066.67;1770293;80;21657;-66
2021/05/27 07:04:07;;;;;;;8.63;7.25;;;;;;;14.42;72.30;99069.65;1762571;80;20992;-67
2021/05/27 07:06:34;;;;;;;9.85;6.72;;;;;;;14.49;72.30;99068.27;1767349;80;22415;-67
2021/05/27 07:09:00;;;;;;;8.40;7.55;;;;;;;14.52;72.07;99069.38;1767813;80;21594;-67
2021/05/27 07:11:26;;;;;;;10.13;7.28;;;;;;;14.54;71.91;99076.67;1764996;80;21746;-66
2021/05/27 07:13:53;;;;;;;8.25;7.42;;;;;;;14.66;72.16;99074.09;1765472;80;21048;-67
2021/05/27 07:16:19;;;;;;;8.90;7.15;;;;;;;14.83;72.16;99080.23;1764858;80;21527;-67
2021/05/27 07:18:45;;;;;;;382.53;229.13;;;;;;;14.98;71.88;99075.16;1763307;80;20976;-68
2021/05/27 07:21:11;;;;;;;38.05;23.38;;;;;;;15.07;71.86;99075.38;1763675;80;21575;-67
2021/05/27 07:23:38;;;;;;;18.85;11.53;;;;;;;15.13;71.65;99077.56;1766273;80;21607;-67
2021/05/27 07:26:05;;;;;;;10.35;8.40;;;;;;;15.05;71.45;99078.14;1761409;80;21060;-67
2021/05/27 07:28:32;;;;;;;9.28;8.38;;;;;;;15.00;71.30;99078.48;1764199;80;21136;-66
2021/05/27 07:31:00;;;;;;;9.53;8.38;;;;;;;14.95;71.30;99077.98;1762483;80;21061;-67
2021/05/27 07:33:27;;;;;;;9.70;8.70;;;;;;;15.02;71.58;99078.86;1762816;79;21031;-66
2021/05/27 07:35:53;;;;;;;12.23;9.40;;;;;;;15.17;71.53;99085.56;1761215;79;21619;-66
2021/05/27 07:38:19;;;;;;;13.78;10.15;;;;;;;15.29;71.22;99088.59;1765869;80;22312;-66
2021/05/27 07:40:46;;;;;;;13.72;9.75;;;;;;;15.35;71.32;99086.80;1767677;80;22076;-67
2021/05/27 07:43:13;;;;;;;7.67;6.87;;;;;;;15.44;70.98;99087.39;1765697;80;20988;-68
2021/05/27 07:45:40;;;;;;;8.38;7.33;;;;;;;15.43;70.83;99094.94;1763053;80;21527;-67
2021/05/27 07:48:08;;;;;;;8.75;7.90;;;;;;;15.28;70.34;99097.42;1767860;79;21051;-67
2021/05/27 07:50:34;;;;;;;;;;;;;;;15.12;70.37;99096.91;1769210;80;21620;-67
2021/05/27 07:53:00;;;;;;;105.60;12.10;;;;;;;15.04;70.35;99094.02;1766984;80;20568;-67
2021/05/27 07:55:27;;;;;;;69.30;11.10;;;;;;;15.00;70.58;99096.88;1765282;79;21672;-67
2021/05/27 07:57:54;;;;;;;11.67;6.93;;;;;;;14.97;70.66;99107.63;1765719;79;21309;-67
2021/05/27 08:00:21;;;;;;;7.05;6.30;;;;;;;14.95;70.66;99106.90;1764970;80;21759;-67
2021/05/27 08:02:48;;;;;;;7.62;6.28;;;;;;;15.15;70.77;99108.50;1764855;80;21012;-67
2021/05/27 08:05:15;;;;;;;9.70;6.37;;;;;;;15.34;70.69;99114.04;1767207;78;21708;-67
2021/05/27 08:07:43;;;;;;;7.83;6.78;;;;;;;15.72;70.62;99107.65;1765243;80;20984;-66
2021/05/27 08:10:12;;;;;;;8.90;6.05;;;;;;;16.00;70.59;99104.16;1769012;80;21154;-66
2021/05/27 08:12:40;;;;;;;8.80;5.40;;;;;;;16.30;69.84;99106.14;1768415;80;21657;-68
2021/05/27 08:15:08;;;;;;;25.55;5.67;;;;;;;16.54;69.67;99103.30;1768736;80;21634;-67
2021/05/27 08:17:35;;;;;;;5.47;4.87;;;;;;;17.00;70.68;99099.53;1771762;80;21725;-66
2021/05/27 08:20:04;;;;;;;6.47;5.30;;;;;;;17.53;69.87;99102.06;1767598;80;21061;-66
2021/05/27 08:22:31;;;;;;;5.33;4.75;;;;;;;17.82;69.58;99101.37;1772857;80;21016;-66
2021/05/27 08:24:58;;;;;;;5.67;5.03;;;;;;;18.34;69.64;99102.03;1766196;80;21007;-66
2021/05/27 08:27:25;;;;;;;6.40;4.47;;;;;;;18.98;69.44;99104.16;1762351;80;20998;-66
2021/05/27 08:29:51;;;;;;;;;;;;;;;19.44;68.70;99097.25;1718639;81;21450;-64
2021/05/27 08:32:18;;;;;;;8.90;5.53;;;;;;;19.43;67.73;99094.73;1714740;82;20557;-63
2021/05/27 08:34:45;;;;;;;6.67;6.03;;;;;;;18.93;67.51;99106.42;1718895;81;21019;-64
2021/05/27 08:37:12;;;;;;;6.50;5.80;;;;;;;18.54;67.61;99106.39;1722280;82;21031;-64
2021/05/27 08:39:38;;;;;;;5.78;4.90;;;;;;;18.05;67.10;99112.06;1734239;81;21141;-64
2021/05/27 08:42:06;;;;;;;9.20;7.70;;;;;;;17.56;66.97;99114.13;1710028;82;21629;-63
2021/05/27 08:44:41;;;;;;;7.58;6.22;;;;;;;17.25;67.31;99110.15;1699972;83;21068;-64
2021/05/27 08:47:10;;;;;;;6.65;6.05;;;;;;;17.03;67.35;99115.10;1709508;81;21091;-64
2021/05/27 08:49:38;;;;;;;9.53;6.28;;;;;;;16.95;67.29;99118.86;1709644;82;21119;-63
2021/05/27 08:52:05;;;;;;;9.98;7.00;;;;;;;16.80;67.20;99114.35;1712307;81;21126;-63
2021/05/27 08:54:32;;;;;;;8.13;6.85;;;;;;;16.71;67.30;99121.19;1706870;83;21062;-63
2021/05/27 08:57:03;;;;;;;6.67;5.60;;;;;;;16.75;67.22;99125.27;1718710;82;21698;-63
2021/05/27 08:59:29;;;;;;;6.90;6.20;;;;;;;16.71;66.86;99115.92;1724880;82;20992;-64
2021/05/27 09:02:08;;;;;;;6.30;5.67;;;;;;;16.62;66.59;99128.55;1680701;81;21656;-63
2021/05/27 09:04:38;;;;;;;6.37;5.78;;;;;;;16.74;67.15;99124.89;1712992;82;21890;-63
2021/05/27 09:07:06;;;;;;;6.92;6.22;;;;;;;17.08;66.74;99128.72;1707071;83;21084;-64
2021/05/27 09:09:58;;;;;;;8.05;6.00;;;;;;;17.58;67.34;99124.91;1709145;82;21518;-64
2021/05/27 09:12:34;;;;;;;7.25;5.50;;;;;;;18.16;67.17;99127.47;1704704;83;21748;-65
2021/05/27 09:15:07;;;;;;;5.28;4.78;;;;;;;18.49;65.99;99133.72;1724511;82;21601;-65
2021/05/27 09:17:44;;;;;;;6.58;5.35;;;;;;;18.58;65.59;99129.91;1723076;82;21003;-67
2021/05/27 09:20:16;;;;;;;6.97;5.35;;;;;;;18.90;65.79;99125.19;1711489;82;23144;-66
2021/05/27 09:22:43;;;;;;;6.30;5.60;;;;;;;19.00;65.37;99132.64;1718225;82;21053;-67
2021/05/27 09:25:28;;;;;;;6.90;6.30;;;;;;;19.01;64.91;99134.80;1717632;82;21094;-67
2021/05/27 09:27:55;;;;;;;6.47;5.65;;;;;;;19.00;65.16;99137.94;1718285;82;21060;-66
2021/05/27 09:30:23;;;;;;;;;;;;;;;19.21;65.58;99138.25;1715669;81;21028;-67
2021/05/27 09:32:52;;;;;;;5.55;5.05;;;;;;;19.37;64.33;99136.34;1721272;82;21099;-66
2021/05/27 09:35:21;;;;;;;8.08;7.22;;;;;;;19.28;64.04;99136.72;1716761;82;21146;-66
2021/05/27 09:37:57;;;;;;;6.85;6.15;;;;;;;19.01;63.96;99139.59;1714555;82;21008;-66
2021/05/27 09:40:35;;;;;;;6.10;5.50;;;;;;;18.69;63.55;99145.64;1717385;82;21033;-66
2021/05/27 09:43:04;;;;;;;8.75;7.85;;;;;;;18.54;64.12;99146.05;1716107;82;21502;-67
2021/05/27 09:45:33;;;;;;;6.83;5.45;;;;;;;18.77;64.89;99145.82;1715655;82;22832;-66
2021/05/27 09:48:18;;;;;;;8.83;7.78;;;;;;;19.01;63.60;99139.59;1720896;82;21728;-66
2021/05/27 09:50:45;;;;;;;12.25;8.85;;;;;;;18.87;63.59;99145.31;1724019;82;21777;-66
2021/05/27 09:53:19;;;;;;;8.33;6.20;;;;;;;18.78;63.39;99142.19;1717569;82;21015;-67
2021/05/27 09:55:46;;;;;;;7.62;6.15;;;;;;;19.01;63.77;99139.59;1716865;82;21585;-66
2021/05/27 09:58:14;;;;;;;;;;;;;;;19.45;64.12;99139.12;1718992;82;22234;-67
2021/05/27 10:00:44;;;;;;;12.55;4.10;;;;;;;19.89;63.48;99142.91;1723066;82;20317;-66
2021/05/27 10:03:33;;;;;;;10.30;7.35;;;;;;;20.04;62.56;99143.74;1714070;82;21003;-66
2021/05/27 10:06:09;;;;;;;7.17;4.10;;;;;;;19.54;61.89;99145.36;1712250;82;21037;-66
2021/05/27 10:08:57;;;;;;;10.82;5.50;;;;;;;19.09;61.66;99146.01;1714887;82;21023;-66
2021/05/27 10:11:26;;;;;;;3.75;3.22;;;;;;;18.75;62.02;99147.76;1718525;82;21644;-64
2021/05/27 10:13:53;;;;;;;4.10;3.20;;;;;;;18.89;62.01;99141.22;1712804;82;21013;-65
2021/05/27 10:16:23;;;;;;;3.62;2.95;;;;;;;19.16;62.25;99148.45;1717335;82;21002;-65
2021/05/27 10:18:52;;;;;;;3.87;3.47;;;;;;;19.37;62.40;99146.94;1715612;82;21040;-66
2021/05/27 10:21:19;;;;;;;7.92;5.78;;;;;;;19.41;61.62;99134.61;1715591;82;21588;-65
2021/05/27 10:23:45;;;;;;;;;;;;;;;19.59;61.85;99147.09;1711691;82;21833;-65
2021/05/27 10:26:13;;;;;;;8.48;6.28;;;;;;;20.07;61.52;99147.42;1715921;82;20640;-66
2021/05/27 10:28:47;;;;;;;5.87;4.20;;;;;;;20.31;61.71;99151.69;1708895;82;21136;-65
2021/05/27 10:31:15;;;;;;;4.50;4.10;;;;;;;20.70;61.53;99162.08;1715422;82;21040;-66
2021/05/27 10:33:44;;;;;;;5.55;3.85;;;;;;;20.91;61.00;99160.94;1716481;82;21034;-66
2021/05/27 10:36:11;;;;;;;3.22;2.90;;;;;;;21.10;61.00;99154.13;1716928;81;21046;-65
2021/05/27 10:38:43;;;;;;;9.05;3.40;;;;;;;20.97;59.62;99152.36;1717558;82;21557;-65
2021/05/27 10:41:34;;;;;;;4.42;3.22;;;;;;;20.52;59.87;99163.84;1720948;82;21167;-65
2021/05/27 10:44:07;;;;;;;3.37;2.92;;;;;;;20.26;59.66;99167.20;1717144;82;21010;-65
2021/05/27 10:46:45;;;;;;;8.03;4.87;;;;;;;19.87;59.00;99171.35;1721110;82;21067;-65
2021/05/27 10:49:12;;;;;;;10.75;7.12;;;;;;;19.38;59.19;99172.42;1716368;82;21818;-65
2021/05/27 10:54:07;;;;;;;6.25;4.53;;;;;;;18.08;59.08;99205.58;1715655;82;21076;-65
2021/05/27 10:56:41;;;;;;;4.72;1.47;;;;;;;16.95;57.82;99220.38;1717280;81;21642;-62
2021/05/27 10:59:11;;;;;;;2.15;1.35;;;;;;;15.99;58.43;99223.59;1716995;82;21574;-62
2021/05/27 11:01:43;;;;;;;3.55;1.05;;;;;;;15.32;59.20;99222.50;1716581;82;21137;-62
2021/05/27 11:04:33;;;;;;;1.60;1.12;;;;;;;15.15;59.29;99228.15;1717349;82;20982;-62
2021/05/27 11:07:23;;;;;;;2.00;1.20;;;;;;;14.59;58.52;99233.12;1707826;82;21081;-62
2021/05/27 11:09:53;;;;;;;1.30;1.00;;;;;;;14.58;59.72;99228.83;1712227;82;21083;-62
2021/05/27 11:12:23;;;;;;;3.15;0.95;;;;;;;14.92;59.27;99229.84;1712906;82;21019;-62
2021/05/27 11:15:07;;;;;;;1.75;0.98;;;;;;;14.98;59.38;99222.37;1711837;82;21071;-62
2021/05/27 11:17:33;;;;;;;2.37;1.20;;;;;;;15.37;58.89;99220.34;1722648;82;21020;-62
2021/05/27 11:20:17;;;;;;;4.33;1.25;;;;;;;15.43;58.30;99222.53;1718362;82;22450;-62
2021/05/27 11:25:26;;;;;;;2.20;1.30;;;;;;;15.77;58.76;99220.00;1710428;82;21674;-62
2021/05/27 11:28:04;;;;;;;3.17;1.35;;;;;;;15.98;59.11;99219.29;1707877;82;21138;-62
2021/05/27 11:30:36;;;;;;;1.67;1.42;;;;;;;15.76;58.45;99216.16;1707316;82;20997;-62
2021/05/27 11:33:27;;;;;;;2.35;1.42;;;;;;;15.42;58.44;99218.20;1708319;82;21469;-62
2021/05/27 11:35:57;;;;;;;3.08;1.20;;;;;;;15.19;58.45;99209.89;1717328;82;21622;-62
2021/05/27 11:38:36;;;;;;;3.70;1.30;;;;;;;15.09;58.76;99204.94;1718150;82;21152;-62
2021/05/27 11:41:16;;;;;;;1.77;1.20;;;;;;;15.28;59.17;99207.88;1709379;82;21164;-63
2021/05/27 11:43:53;;;;;;;2.55;1.30;;;;;;;15.44;59.20;99214.98;1717592;82;21068;-63
2021/05/27 11:46:25;;;;;;;1.82;1.02;;;;;;;15.59;59.09;99205.56;1714530;82;21000;-62
2021/05/27 11:50:54;;;;;;;3.00;1.25;;;;;;;15.53;58.92;99198.14;1788664;77;22728;-64
2021/05/27 11:53:21;;;;;;;6.55;1.70;;;;;;;15.34;59.05;99206.09;1764404;79;21115;-63
2021/05/27 11:55:58;;;;;;;3.98;1.25;;;;;;;15.25;59.27;99200.23;1765309;80;21465;-65
2021/05/27 11:58:38;;;;;;;2.65;1.50;;;;;;;15.09;59.33;99210.20;1766635;80;21626;-63
2021/05/27 12:01:24;;;;;;;2.75;1.80;;;;;;;14.92;59.46;99214.91;1768089;80;21652;-64
2021/05/27 12:04:14;;;;;;;4.67;1.72;;;;;;;14.67;59.40;99221.11;1762285;80;21013;-63